sensor_id;sensor_type;location;lat;lon;timestamp;pressure;altitude;pressure_sealevel;temperature;humidity
49311;BME280;35177;45.900;5.946;2023-07-24T00:02:10;97046.72;;;23.84;56.31
49311;BME280;35177;45.900;5.946;2023-07-24T00:04:35;97039.53;;;23.70;57.00
49311;BME280;35177;45.900;5.946;2023-07-24T00:07:01;97042.69;;;24.01;55.27
49311;BME280;35177;45.900;5.946;2023-07-24T00:09:26;97041.16;;;24.20;53.74
49311;BME280;35177;45.900;5.946;2023-07-24T00:11:52;97036.22;;;24.02;55.83
49311;BME280;35177;45.900;5.946;2023-07-24T00:14:17;97034.63;;;23.80;55.86
49311;BME280;35177;45.900;5.946;2023-07-24T00:16:42;97030.59;;;23.70;56.65
49311;BME280;35177;45.900;5.946;2023-07-24T00:19:08;97028.63;;;23.57;57.36
49311;BME280;35177;45.900;5.946;2023-07-24T00:21:33;97021.72;;;23.27;58.15
49311;BME280;35177;45.900;5.946;2023-07-24T00:23:59;97010.00;;;23.20;58.60
49311;BME280;35177;45.900;5.946;2023-07-24T00:26:24;96994.84;;;22.98;59.80
49311;BME280;35177;45.900;5.946;2023-07-24T00:28:50;97006.34;;;22.85;60.46
49311;BME280;35177;45.900;5.946;2023-07-24T00:31:15;96997.41;;;22.85;60.31
49311;BME280;35177;45.900;5.946;2023-07-24T00:33:41;96997.69;;;22.90;59.82
49311;BME280;35177;45.900;5.946;2023-07-24T00:36:06;96988.16;;;22.37;62.34
49311;BME280;35177;45.900;5.946;2023-07-24T00:38:32;96985.31;;;22.09;63.91
49311;BME280;35177;45.900;5.946;2023-07-24T00:40:57;96979.81;;;22.17;64.20
49311;BME280;35177;45.900;5.946;2023-07-24T00:43:23;96976.63;;;22.28;63.79
49311;BME280;35177;45.900;5.946;2023-07-24T00:45:48;96975.53;;;22.23;63.94
49311;BME280;35177;45.900;5.946;2023-07-24T00:48:15;96965.34;;;21.89;65.06
49311;BME280;35177;45.900;5.946;2023-07-24T00:50:42;96963.78;;;21.94;63.97
49311;BME280;35177;45.900;5.946;2023-07-24T00:53:08;96956.69;;;21.79;64.84
49311;BME280;35177;45.900;5.946;2023-07-24T00:55:33;96943.88;;;21.81;63.92
49311;BME280;35177;45.900;5.946;2023-07-24T00:57:59;96937.19;;;21.62;64.75
49311;BME280;35177;45.900;5.946;2023-07-24T01:00:26;96943.84;;;21.52;65.10
49311;BME280;35177;45.900;5.946;2023-07-24T01:02:52;96930.56;;;21.35;66.17
49311;BME280;35177;45.900;5.946;2023-07-24T01:05:19;96912.00;;;21.26;66.78
49311;BME280;35177;45.900;5.946;2023-07-24T01:07:45;96896.22;;;21.52;65.45
49311;BME280;35177;45.900;5.946;2023-07-24T01:10:10;96894.66;;;21.43;66.11
49311;BME280;35177;45.900;5.946;2023-07-24T01:12:47;96898.09;;;21.22;66.64
49311;BME280;35177;45.900;5.946;2023-07-24T01:15:24;96892.16;;;21.41;65.84
49311;BME280;35177;45.900;5.946;2023-07-24T01:17:59;96880.63;;;21.48;66.48
49311;BME280;35177;45.900;5.946;2023-07-24T01:20:26;96875.44;;;21.31;67.49
49311;BME280;35177;45.900;5.946;2023-07-24T01:25:56;96874.31;;;21.11;68.67
49311;BME280;35177;45.900;5.946;2023-07-24T01:28:26;96896.78;;;20.96;69.34
49311;BME280;35177;45.900;5.946;2023-07-24T01:30:52;96894.28;;;20.94;68.35
49311;BME280;35177;45.900;5.946;2023-07-24T01:33:19;96883.69;;;20.78;70.08
49311;BME280;35177;45.900;5.946;2023-07-24T01:35:44;96856.19;;;20.91;68.76
49311;BME280;35177;45.900;5.946;2023-07-24T01:38:14;96846.31;;;21.20;66.66
49311;BME280;35177;45.900;5.946;2023-07-24T01:40:40;96839.25;;;21.19;67.30
49311;BME280;35177;45.900;5.946;2023-07-24T01:43:06;96830.97;;;21.35;66.50
49311;BME280;35177;45.900;5.946;2023-07-24T01:45:32;96838.97;;;21.29;66.93
49311;BME280;35177;45.900;5.946;2023-07-24T01:47:58;96839.25;;;21.49;66.82
49311;BME280;35177;45.900;5.946;2023-07-24T01:50:23;96847.84;;;21.59;65.88
49311;BME280;35177;45.900;5.946;2023-07-24T01:52:49;96869.50;;;21.51;67.03
49311;BME280;35177;45.900;5.946;2023-07-24T01:55:14;96891.97;;;21.58;65.70
49311;BME280;35177;45.900;5.946;2023-07-24T01:57:40;96942.47;;;21.56;65.94
49311;BME280;35177;45.900;5.946;2023-07-24T02:00:05;97012.19;;;21.51;65.26
49311;BME280;35177;45.900;5.946;2023-07-24T02:02:31;97027.81;;;21.55;65.72
49311;BME280;35177;45.900;5.946;2023-07-24T02:04:56;96999.34;;;22.04;62.43
49311;BME280;35177;45.900;5.946;2023-07-24T02:07:22;97027.44;;;23.17;58.27
49311;BME280;35177;45.900;5.946;2023-07-24T02:09:47;97077.25;;;23.15;62.17
49311;BME280;35177;45.900;5.946;2023-07-24T02:12:13;97134.38;;;22.83;64.56
49311;BME280;35177;45.900;5.946;2023-07-24T02:14:40;97153.53;;;22.58;65.47
49311;BME280;35177;45.900;5.946;2023-07-24T02:17:06;97187.66;;;22.51;66.95
49311;BME280;35177;45.900;5.946;2023-07-24T02:19:31;97220.22;;;22.12;68.65
49311;BME280;35177;45.900;5.946;2023-07-24T02:21:57;97289.38;;;21.05;77.46
49311;BME280;35177;45.900;5.946;2023-07-24T02:24:22;97283.44;;;20.47;80.15
49311;BME280;35177;45.900;5.946;2023-07-24T02:26:47;97264.63;;;20.47;79.12
49311;BME280;35177;45.900;5.946;2023-07-24T02:29:13;97234.75;;;20.34;79.48
49311;BME280;35177;45.900;5.946;2023-07-24T02:31:38;97167.19;;;20.45;77.31
49311;BME280;35177;45.900;5.946;2023-07-24T02:34:04;97173.06;;;20.48;76.05
49311;BME280;35177;45.900;5.946;2023-07-24T02:36:29;97157.56;;;20.58;75.37
49311;BME280;35177;45.900;5.946;2023-07-24T02:38:55;97154.13;;;20.34;78.09
49311;BME280;35177;45.900;5.946;2023-07-24T02:41:20;97153.94;;;20.19;79.68
49311;BME280;35177;45.900;5.946;2023-07-24T02:43:46;97123.69;;;19.62;84.00
49311;BME280;35177;45.900;5.946;2023-07-24T02:46:12;97083.25;;;19.56;83.26
49311;BME280;35177;45.900;5.946;2023-07-24T02:48:37;97020.34;;;19.50;85.16
49311;BME280;35177;45.900;5.946;2023-07-24T02:51:03;97037.63;;;19.48;86.04
49311;BME280;35177;45.900;5.946;2023-07-24T02:53:28;97101.88;;;19.57;85.85
49311;BME280;35177;45.900;5.946;2023-07-24T02:55:54;97103.84;;;19.63;85.55
49311;BME280;35177;45.900;5.946;2023-07-24T02:58:19;97107.06;;;19.67;85.35
49311;BME280;35177;45.900;5.946;2023-07-24T03:00:45;97130.03;;;19.61;86.41
49311;BME280;35177;45.900;5.946;2023-07-24T03:03:10;97144.31;;;19.54;87.29
49311;BME280;35177;45.900;5.946;2023-07-24T03:05:36;97126.66;;;19.75;86.12
49311;BME280;35177;45.900;5.946;2023-07-24T03:08:02;97143.97;;;19.57;88.23
49311;BME280;35177;45.900;5.946;2023-07-24T03:10:27;97121.66;;;19.64;87.08
49311;BME280;35177;45.900;5.946;2023-07-24T03:12:53;97111.59;;;19.66;87.25
49311;BME280;35177;45.900;5.946;2023-07-24T03:15:19;97090.13;;;19.74;86.02
49311;BME280;35177;45.900;5.946;2023-07-24T03:17:44;97092.44;;;19.85;85.66
49311;BME280;35177;45.900;5.946;2023-07-24T03:20:17;97089.56;;;19.87;85.78
49311;BME280;35177;45.900;5.946;2023-07-24T03:22:44;97097.50;;;19.64;87.48
49311;BME280;35177;45.900;5.946;2023-07-24T03:25:10;97092.47;;;19.61;88.03
49311;BME280;35177;45.900;5.946;2023-07-24T03:27:36;97075.53;;;19.61;88.30
49311;BME280;35177;45.900;5.946;2023-07-24T03:30:01;97063.13;;;19.60;88.67
49311;BME280;35177;45.900;5.946;2023-07-24T03:32:27;97064.63;;;19.62;88.66
49311;BME280;35177;45.900;5.946;2023-07-24T03:34:53;97079.56;;;19.65;87.52
49311;BME280;35177;45.900;5.946;2023-07-24T03:37:18;97072.34;;;19.65;87.21
49311;BME280;35177;45.900;5.946;2023-07-24T03:39:44;97068.31;;;19.69;87.65
49311;BME280;35177;45.900;5.946;2023-07-24T03:42:10;97066.28;;;19.63;88.41
49311;BME280;35177;45.900;5.946;2023-07-24T03:44:39;97058.59;;;19.60;87.89
49311;BME280;35177;45.900;5.946;2023-07-24T03:47:04;97057.41;;;19.63;87.66
49311;BME280;35177;45.900;5.946;2023-07-24T03:49:30;97042.47;;;19.60;87.72
49311;BME280;35177;45.900;5.946;2023-07-24T03:51:55;97039.63;;;19.62;87.08
49311;BME280;35177;45.900;5.946;2023-07-24T03:54:21;97033.78;;;19.58;86.46
49311;BME280;35177;45.900;5.946;2023-07-24T03:56:46;97012.31;;;19.42;87.12
49311;BME280;35177;45.900;5.946;2023-07-24T03:59:12;97019.69;;;19.48;87.06
49311;BME280;35177;45.900;5.946;2023-07-24T04:01:37;97028.22;;;19.60;86.34
49311;BME280;35177;45.900;5.946;2023-07-24T04:04:03;97025.72;;;20.05;78.86
49311;BME280;35177;45.900;5.946;2023-07-24T04:06:28;97019.84;;;20.79;75.97
49311;BME280;35177;45.900;5.946;2023-07-24T04:08:54;97015.97;;;19.57;85.41
49311;BME280;35177;45.900;5.946;2023-07-24T04:11:19;97030.22;;;18.69;90.81
49311;BME280;35177;45.900;5.946;2023-07-24T04:13:45;97034.19;;;18.49;93.45
49311;BME280;35177;45.900;5.946;2023-07-24T04:16:10;97014.59;;;18.56;93.66
49311;BME280;35177;45.900;5.946;2023-07-24T04:18:35;97011.09;;;18.64;93.84
49311;BME280;35177;45.900;5.946;2023-07-24T04:21:01;97008.59;;;18.87;91.81
49311;BME280;35177;45.900;5.946;2023-07-24T04:23:27;97007.28;;;18.91;91.36
49311;BME280;35177;45.900;5.946;2023-07-24T04:25:52;97019.34;;;19.51;86.52
49311;BME280;35177;45.900;5.946;2023-07-24T04:28:18;97021.22;;;20.44;80.14
49311;BME280;35177;45.900;5.946;2023-07-24T04:30:43;97019.72;;;20.42;82.15
49311;BME280;35177;45.900;5.946;2023-07-24T04:33:09;97026.00;;;20.57;80.19
49311;BME280;35177;45.900;5.946;2023-07-24T04:35:34;97027.00;;;20.87;78.15
49311;BME280;35177;45.900;5.946;2023-07-24T04:38:00;97047.03;;;19.44;88.74
49311;BME280;35177;45.900;5.946;2023-07-24T04:40:25;97074.50;;;19.70;87.90
49311;BME280;35177;45.900;5.946;2023-07-24T04:42:51;97072.69;;;19.38;90.05
49311;BME280;35177;45.900;5.946;2023-07-24T04:45:16;97060.44;;;19.35;90.43
49311;BME280;35177;45.900;5.946;2023-07-24T04:47:42;97056.91;;;19.59;88.43
49311;BME280;35177;45.900;5.946;2023-07-24T04:50:07;97054.38;;;20.29;82.52
49311;BME280;35177;45.900;5.946;2023-07-24T04:52:33;97049.97;;;20.36;84.86
49311;BME280;35177;45.900;5.946;2023-07-24T04:54:58;97017.44;;;19.68;87.83
49311;BME280;35177;45.900;5.946;2023-07-24T04:57:24;96994.03;;;19.13;91.77
49311;BME280;35177;45.900;5.946;2023-07-24T04:59:49;96988.16;;;18.78;94.06
49311;BME280;35177;45.900;5.946;2023-07-24T05:02:15;96984.31;;;18.80;94.03
49311;BME280;35177;45.900;5.946;2023-07-24T05:04:40;96961.34;;;18.78;94.16
49311;BME280;35177;45.900;5.946;2023-07-24T05:07:06;96977.78;;;18.91;93.70
49311;BME280;35177;45.900;5.946;2023-07-24T05:09:32;97019.00;;;19.62;88.66
49311;BME280;35177;45.900;5.946;2023-07-24T05:11:57;97021.75;;;19.93;87.38
49311;BME280;35177;45.900;5.946;2023-07-24T05:14:23;97030.25;;;19.50;89.75
49311;BME280;35177;45.900;5.946;2023-07-24T05:16:48;97071.69;;;20.18;85.34
49311;BME280;35177;45.900;5.946;2023-07-24T05:19:14;97098.66;;;20.41;83.79
49311;BME280;35177;45.900;5.946;2023-07-24T05:21:39;97131.59;;;20.43;84.43
49311;BME280;35177;45.900;5.946;2023-07-24T05:24:05;97151.81;;;19.98;86.46
49311;BME280;35177;45.900;5.946;2023-07-24T05:26:30;97161.72;;;20.22;84.45
49311;BME280;35177;45.900;5.946;2023-07-24T05:28:55;97174.63;;;20.27;85.15
49311;BME280;35177;45.900;5.946;2023-07-24T05:31:21;97192.81;;;19.60;89.82
49311;BME280;35177;45.900;5.946;2023-07-24T05:33:47;97217.63;;;19.94;87.97
49311;BME280;35177;45.900;5.946;2023-07-24T05:36:12;97217.59;;;19.46;91.30
49311;BME280;35177;45.900;5.946;2023-07-24T05:38:38;97204.44;;;19.19;92.69
49311;BME280;35177;45.900;5.946;2023-07-24T05:41:03;97200.84;;;18.94;94.88
49311;BME280;35177;45.900;5.946;2023-07-24T05:43:30;97202.66;;;18.86;95.84
49311;BME280;35177;45.900;5.946;2023-07-24T05:45:57;97170.78;;;18.75;96.20
49311;BME280;35177;45.900;5.946;2023-07-24T05:48:23;97131.75;;;18.72;96.51
49311;BME280;35177;45.900;5.946;2023-07-24T05:50:49;97034.06;;;18.66;96.81
49311;BME280;35177;45.900;5.946;2023-07-24T05:53:15;96952.31;;;18.62;97.21
49311;BME280;35177;45.900;5.946;2023-07-24T05:55:41;96947.13;;;18.69;96.50
49311;BME280;35177;45.900;5.946;2023-07-24T05:58:08;96982.81;;;18.86;94.98
49311;BME280;35177;45.900;5.946;2023-07-24T06:00:33;97011.97;;;18.97;94.55
49311;BME280;35177;45.900;5.946;2023-07-24T06:02:59;96998.91;;;19.02;93.94
49311;BME280;35177;45.900;5.946;2023-07-24T06:05:24;97002.25;;;19.04;94.15
49311;BME280;35177;45.900;5.946;2023-07-24T06:07:50;97014.84;;;19.11;93.45
49311;BME280;35177;45.900;5.946;2023-07-24T06:10:15;97010.94;;;19.22;93.38
49311;BME280;35177;45.900;5.946;2023-07-24T06:12:41;97014.16;;;19.17;93.17
49311;BME280;35177;45.900;5.946;2023-07-24T06:15:06;96997.72;;;19.20;93.19
49311;BME280;35177;45.900;5.946;2023-07-24T06:17:32;96989.81;;;19.27;93.44
49311;BME280;35177;45.900;5.946;2023-07-24T06:19:58;97002.75;;;19.56;91.81
49311;BME280;35177;45.900;5.946;2023-07-24T06:22:23;97005.38;;;19.64;91.28
49311;BME280;35177;45.900;5.946;2023-07-24T06:24:49;97011.75;;;19.71;90.94
49311;BME280;35177;45.900;5.946;2023-07-24T06:27:15;97000.09;;;19.86;90.04
49311;BME280;35177;45.900;5.946;2023-07-24T06:29:40;96992.03;;;19.94;89.88
49311;BME280;35177;45.900;5.946;2023-07-24T06:32:06;96980.28;;;19.95;89.99
49311;BME280;35177;45.900;5.946;2023-07-24T06:34:32;96990.88;;;19.89;89.93
49311;BME280;35177;45.900;5.946;2023-07-24T06:36:58;96994.06;;;19.92;91.60
49311;BME280;35177;45.900;5.946;2023-07-24T06:39:23;96984.97;;;19.93;91.46
49311;BME280;35177;45.900;5.946;2023-07-24T06:41:51;96990.97;;;20.03;90.95
49311;BME280;35177;45.900;5.946;2023-07-24T06:44:17;97004.94;;;19.99;90.93
49311;BME280;35177;45.900;5.946;2023-07-24T06:46:42;97022.50;;;20.18;90.26
49311;BME280;35177;45.900;5.946;2023-07-24T06:49:08;97033.41;;;20.55;89.14
49311;BME280;35177;45.900;5.946;2023-07-24T06:51:33;97040.31;;;20.80;88.95
49311;BME280;35177;45.900;5.946;2023-07-24T06:53:59;97040.84;;;20.98;88.15
49311;BME280;35177;45.900;5.946;2023-07-24T06:56:24;97045.28;;;20.91;89.10
49311;BME280;35177;45.900;5.946;2023-07-24T06:58:50;97064.41;;;20.73;88.75
49311;BME280;35177;45.900;5.946;2023-07-24T07:01:15;97091.16;;;20.67;87.29
49311;BME280;35177;45.900;5.946;2023-07-24T07:03:40;97087.84;;;20.57;88.05
49311;BME280;35177;45.900;5.946;2023-07-24T07:06:06;97082.47;;;20.57;87.95
49311;BME280;35177;45.900;5.946;2023-07-24T07:08:32;97055.94;;;20.54;87.69
49311;BME280;35177;45.900;5.946;2023-07-24T07:11:01;97067.38;;;20.56;89.38
49311;BME280;35177;45.900;5.946;2023-07-24T07:13:27;97050.59;;;20.46;92.76
49311;BME280;35177;45.900;5.946;2023-07-24T07:15:52;97065.75;;;20.39;90.84
49311;BME280;35177;45.900;5.946;2023-07-24T07:18:18;97066.31;;;20.26;90.20
49311;BME280;35177;45.900;5.946;2023-07-24T07:20:45;97055.44;;;20.12;92.37
49311;BME280;35177;45.900;5.946;2023-07-24T07:23:11;97050.75;;;20.05;92.99
49311;BME280;35177;45.900;5.946;2023-07-24T07:25:37;97049.78;;;19.90;90.83
49311;BME280;35177;45.900;5.946;2023-07-24T07:28:03;97046.78;;;19.85;89.94
49311;BME280;35177;45.900;5.946;2023-07-24T07:30:28;97059.53;;;19.83;89.48
49311;BME280;35177;45.900;5.946;2023-07-24T07:32:54;97065.53;;;20.01;89.95
49311;BME280;35177;45.900;5.946;2023-07-24T07:35:19;97069.91;;;20.02;88.06
49311;BME280;35177;45.900;5.946;2023-07-24T07:37:45;97034.69;;;19.89;87.16
49311;BME280;35177;45.900;5.946;2023-07-24T07:40:10;96976.25;;;19.91;88.86
49311;BME280;35177;45.900;5.946;2023-07-24T07:42:36;96997.84;;;20.14;88.24
49311;BME280;35177;45.900;5.946;2023-07-24T07:45:02;97013.06;;;20.30;86.68
49311;BME280;35177;45.900;5.946;2023-07-24T07:47:27;96986.56;;;20.19;86.46
49311;BME280;35177;45.900;5.946;2023-07-24T07:49:52;96995.97;;;20.15;86.88
49311;BME280;35177;45.900;5.946;2023-07-24T07:52:18;97017.13;;;20.09;87.42
49311;BME280;35177;45.900;5.946;2023-07-24T07:54:48;97052.06;;;20.09;88.10
49311;BME280;35177;45.900;5.946;2023-07-24T07:57:14;97035.44;;;20.22;87.27
49311;BME280;35177;45.900;5.946;2023-07-24T07:59:40;97040.38;;;20.41;87.18
49311;BME280;35177;45.900;5.946;2023-07-24T08:02:06;97036.19;;;20.39;86.33
49311;BME280;35177;45.900;5.946;2023-07-24T08:04:32;97023.50;;;20.55;87.63
49311;BME280;35177;45.900;5.946;2023-07-24T08:06:57;97002.47;;;20.82;86.37
49311;BME280;35177;45.900;5.946;2023-07-24T08:09:23;96992.69;;;20.89;85.97
49311;BME280;35177;45.900;5.946;2023-07-24T08:11:50;96983.00;;;21.02;85.47
49311;BME280;35177;45.900;5.946;2023-07-24T08:14:17;96988.03;;;21.05;84.22
49311;BME280;35177;45.900;5.946;2023-07-24T08:16:42;96984.38;;;20.98;84.31
49311;BME280;35177;45.900;5.946;2023-07-24T08:19:08;96981.47;;;20.85;85.58
49311;BME280;35177;45.900;5.946;2023-07-24T08:21:33;96999.13;;;20.79;85.06
49311;BME280;35177;45.900;5.946;2023-07-24T08:23:58;97014.81;;;20.76;84.94
49311;BME280;35177;45.900;5.946;2023-07-24T08:26:25;97000.41;;;20.69;84.28
49311;BME280;35177;45.900;5.946;2023-07-24T08:28:52;96988.03;;;20.60;85.03
49311;BME280;35177;45.900;5.946;2023-07-24T08:31:17;96986.09;;;20.46;87.51
49311;BME280;35177;45.900;5.946;2023-07-24T08:33:43;96993.84;;;20.41;88.53
49311;BME280;35177;45.900;5.946;2023-07-24T08:36:08;96998.44;;;20.63;86.67
49311;BME280;35177;45.900;5.946;2023-07-24T08:38:35;96987.91;;;20.76;87.33
49311;BME280;35177;45.900;5.946;2023-07-24T08:43:29;96991.16;;;20.41;88.63
49311;BME280;35177;45.900;5.946;2023-07-24T08:45:57;96982.38;;;20.47;86.77
49311;BME280;35177;45.900;5.946;2023-07-24T08:48:23;96980.66;;;20.54;86.00
49311;BME280;35177;45.900;5.946;2023-07-24T08:50:50;96987.69;;;20.63;85.32
49311;BME280;35177;45.900;5.946;2023-07-24T08:53:19;97007.38;;;20.55;87.61
49311;BME280;35177;45.900;5.946;2023-07-24T08:55:47;97022.00;;;20.22;90.28
49311;BME280;35177;45.900;5.946;2023-07-24T08:58:14;97004.88;;;20.15;90.51
49311;BME280;35177;45.900;5.946;2023-07-24T09:00:40;97017.94;;;20.26;89.27
49311;BME280;35177;45.900;5.946;2023-07-24T09:03:05;96981.16;;;20.27;88.72
49311;BME280;35177;45.900;5.946;2023-07-24T09:05:30;96883.00;;;20.08;89.32
49311;BME280;35177;45.900;5.946;2023-07-24T09:07:56;96923.72;;;19.89;89.48
49311;BME280;35177;45.900;5.946;2023-07-24T09:10:25;97005.66;;;19.93;90.93
49311;BME280;35177;45.900;5.946;2023-07-24T09:12:51;96962.81;;;19.99;90.92
49311;BME280;35177;45.900;5.946;2023-07-24T09:15:17;96972.91;;;19.97;90.49
49311;BME280;35177;45.900;5.946;2023-07-24T09:17:52;97036.03;;;19.85;91.19
49311;BME280;35177;45.900;5.946;2023-07-24T09:20:19;97030.72;;;19.69;92.71
49311;BME280;35177;45.900;5.946;2023-07-24T09:22:52;97001.00;;;19.79;92.70
49311;BME280;35177;45.900;5.946;2023-07-24T09:25:17;96984.03;;;19.78;93.64
49311;BME280;35177;45.900;5.946;2023-07-24T09:27:44;96971.72;;;19.92;92.56
49311;BME280;35177;45.900;5.946;2023-07-24T09:30:13;97021.44;;;19.88;92.62
49311;BME280;35177;45.900;5.946;2023-07-24T09:32:40;97041.38;;;19.93;92.76
49311;BME280;35177;45.900;5.946;2023-07-24T09:35:16;97075.28;;;19.94;91.59
49311;BME280;35177;45.900;5.946;2023-07-24T09:37:43;97073.13;;;19.82;92.95
49311;BME280;35177;45.900;5.946;2023-07-24T09:40:10;97064.22;;;19.89;92.69
49311;BME280;35177;45.900;5.946;2023-07-24T09:42:37;97035.06;;;19.78;93.87
49311;BME280;35177;45.900;5.946;2023-07-24T09:45:03;97018.00;;;19.55;94.13
49311;BME280;35177;45.900;5.946;2023-07-24T09:47:29;97086.09;;;19.38;95.57
49311;BME280;35177;45.900;5.946;2023-07-24T09:49:55;97066.13;;;19.16;95.99
49311;BME280;35177;45.900;5.946;2023-07-24T09:52:21;96994.88;;;19.46;84.40
49311;BME280;35177;45.900;5.946;2023-07-24T09:57:23;96958.06;;;19.71;87.10
49311;BME280;35177;45.900;5.946;2023-07-24T09:59:49;96928.16;;;20.13;85.35
49311;BME280;35177;45.900;5.946;2023-07-24T10:02:17;96961.91;;;20.91;83.61
49311;BME280;35177;45.900;5.946;2023-07-24T10:04:44;96997.00;;;21.20;85.10
49311;BME280;35177;45.900;5.946;2023-07-24T10:07:09;97005.16;;;21.64;81.75
49311;BME280;35177;45.900;5.946;2023-07-24T10:09:35;97009.34;;;21.67;80.13
49311;BME280;35177;45.900;5.946;2023-07-24T10:12:02;97004.47;;;21.85;82.93
49311;BME280;35177;45.900;5.946;2023-07-24T10:14:28;97031.41;;;21.99;83.95
49311;BME280;35177;45.900;5.946;2023-07-24T10:16:56;97021.50;;;21.77;83.54
49311;BME280;35177;45.900;5.946;2023-07-24T10:19:22;97024.06;;;22.08;82.60
49311;BME280;35177;45.900;5.946;2023-07-24T10:21:48;97041.94;;;22.45;82.51
49311;BME280;35177;45.900;5.946;2023-07-24T10:24:15;97037.66;;;22.50;80.44
49311;BME280;35177;45.900;5.946;2023-07-24T10:26:41;97036.25;;;22.54;79.94
49311;BME280;35177;45.900;5.946;2023-07-24T10:29:06;97031.38;;;23.36;77.04
49311;BME280;35177;45.900;5.946;2023-07-24T10:31:32;97023.13;;;23.23;80.13
49311;BME280;35177;45.900;5.946;2023-07-24T10:34:07;97022.09;;;23.03;75.76
49311;BME280;35177;45.900;5.946;2023-07-24T10:36:34;97007.31;;;23.41;76.04
49311;BME280;35177;45.900;5.946;2023-07-24T10:39:00;97006.41;;;23.34;73.99
49311;BME280;35177;45.900;5.946;2023-07-24T10:41:36;97014.13;;;23.16;73.58
49311;BME280;35177;45.900;5.946;2023-07-24T10:44:02;97008.22;;;23.48;73.64
49311;BME280;35177;45.900;5.946;2023-07-24T10:46:40;96990.66;;;23.37;73.27
49311;BME280;35177;45.900;5.946;2023-07-24T10:49:08;96991.38;;;23.46;72.11
49311;BME280;35177;45.900;5.946;2023-07-24T10:51:33;96988.69;;;24.08;72.14
49311;BME280;35177;45.900;5.946;2023-07-24T10:54:02;96978.06;;;24.60;67.01
49311;BME280;35177;45.900;5.946;2023-07-24T10:56:28;96969.16;;;24.12;68.57
49311;BME280;35177;45.900;5.946;2023-07-24T10:58:54;96975.59;;;24.72;67.20
49311;BME280;35177;45.900;5.946;2023-07-24T11:01:19;96979.38;;;24.24;67.85
49311;BME280;35177;45.900;5.946;2023-07-24T11:03:46;96966.13;;;23.94;70.78
49311;BME280;35177;45.900;5.946;2023-07-24T11:06:18;96964.19;;;23.88;67.67
49311;BME280;35177;45.900;5.946;2023-07-24T11:08:55;96973.44;;;23.66;68.20
49311;BME280;35177;45.900;5.946;2023-07-24T11:11:31;96969.84;;;23.59;70.31
49311;BME280;35177;45.900;5.946;2023-07-24T11:13:57;96962.63;;;23.38;68.60
49311;BME280;35177;45.900;5.946;2023-07-24T11:16:22;96969.25;;;23.36;69.28
49311;BME280;35177;45.900;5.946;2023-07-24T11:18:50;96954.97;;;23.42;68.73
49311;BME280;35177;45.900;5.946;2023-07-24T11:21:17;96953.00;;;23.57;72.22
49311;BME280;35177;45.900;5.946;2023-07-24T11:23:50;96956.03;;;23.75;66.24
49311;BME280;35177;45.900;5.946;2023-07-24T11:26:23;96951.94;;;23.86;67.16
49311;BME280;35177;45.900;5.946;2023-07-24T11:28:49;96949.19;;;23.79;65.95
49311;BME280;35177;45.900;5.946;2023-07-24T11:31:15;96947.44;;;23.99;65.27
49311;BME280;35177;45.900;5.946;2023-07-24T11:33:41;96941.59;;;24.02;66.30
49311;BME280;35177;45.900;5.946;2023-07-24T11:36:09;96938.56;;;24.12;66.60
49311;BME280;35177;45.900;5.946;2023-07-24T11:38:35;96930.06;;;24.15;64.74
49311;BME280;35177;45.900;5.946;2023-07-24T11:41:03;96939.28;;;24.27;63.44
49311;BME280;35177;45.900;5.946;2023-07-24T11:43:28;96926.78;;;24.33;62.10
49311;BME280;35177;45.900;5.946;2023-07-24T11:45:54;96926.59;;;24.34;62.74
49311;BME280;35177;45.900;5.946;2023-07-24T11:48:22;96924.09;;;24.33;62.65
49311;BME280;35177;45.900;5.946;2023-07-24T11:50:50;96914.97;;;24.40;61.20
49311;BME280;35177;45.900;5.946;2023-07-24T11:53:29;96910.22;;;24.62;60.96
49311;BME280;35177;45.900;5.946;2023-07-24T11:55:58;96910.91;;;24.77;63.46
49311;BME280;35177;45.900;5.946;2023-07-24T11:58:28;96899.03;;;24.84;59.77
49311;BME280;35177;45.900;5.946;2023-07-24T12:00:55;96888.44;;;25.48;58.15
49311;BME280;35177;45.900;5.946;2023-07-24T12:03:21;96883.66;;;26.08;57.68
49311;BME280;35177;45.900;5.946;2023-07-24T12:05:47;96883.78;;;26.26;59.13
49311;BME280;35177;45.900;5.946;2023-07-24T12:08:12;96879.00;;;25.64;55.93
49311;BME280;35177;45.900;5.946;2023-07-24T12:10:40;96874.97;;;26.37;57.11
49311;BME280;35177;45.900;5.946;2023-07-24T12:13:06;96869.50;;;25.99;56.09
49311;BME280;35177;45.900;5.946;2023-07-24T12:15:31;96880.94;;;26.08;56.07
49311;BME280;35177;45.900;5.946;2023-07-24T12:17:59;96874.19;;;25.66;55.93
49311;BME280;35177;45.900;5.946;2023-07-24T12:20:26;96878.75;;;25.79;57.56
49311;BME280;35177;45.900;5.946;2023-07-24T12:22:52;96873.81;;;25.43;56.51
49311;BME280;35177;45.900;5.946;2023-07-24T12:25:18;96870.94;;;25.18;57.92
49311;BME280;35177;45.900;5.946;2023-07-24T12:27:45;96855.75;;;24.78;58.80
49311;BME280;35177;45.900;5.946;2023-07-24T12:30:11;96852.16;;;24.71;60.18
49311;BME280;35177;45.900;5.946;2023-07-24T12:32:36;96844.50;;;24.94;61.23
49311;BME280;35177;45.900;5.946;2023-07-24T12:35:02;96853.03;;;25.11;61.74
49311;BME280;35177;45.900;5.946;2023-07-24T12:37:27;96838.63;;;25.36;55.09
49311;BME280;35177;45.900;5.946;2023-07-24T12:39:53;96822.88;;;25.78;55.82
49311;BME280;35177;45.900;5.946;2023-07-24T12:42:19;96821.03;;;25.65;55.67
49311;BME280;35177;45.900;5.946;2023-07-24T12:44:44;96821.84;;;25.79;57.75
49311;BME280;35177;45.900;5.946;2023-07-24T12:47:11;96819.63;;;26.00;54.39
49311;BME280;35177;45.900;5.946;2023-07-24T12:49:36;96816.41;;;25.72;55.19
49311;BME280;35177;45.900;5.946;2023-07-24T12:52:03;96829.84;;;25.41;55.35
49311;BME280;35177;45.900;5.946;2023-07-24T12:54:28;96817.59;;;25.19;56.50
49311;BME280;35177;45.900;5.946;2023-07-24T12:56:54;96825.34;;;25.09;57.47
49311;BME280;35177;45.900;5.946;2023-07-24T12:59:20;96818.06;;;24.83;57.62
49311;BME280;35177;45.900;5.946;2023-07-24T13:01:45;96819.91;;;24.69;59.21
49311;BME280;35177;45.900;5.946;2023-07-24T13:04:12;96794.91;;;24.61;59.27